メインページ
METAR-TAF:

METAR-TAF

空港 :

ザーヘダーン, イラン

緯度: 29-28N, 経度: 060-53E, 海抜: 1370m

現時点の気象観測

当レポートは48分前の17:30(UTC)に作成
無風
気温 6°C
湿度 42%
気圧 1027 hPa
視程10km以上
1,500メートル以下は雲なし、積乱雲なし

METAR: OIZH 171730Z 00000KT CAVOK 06/M06 Q1026 A3032

時間: 21:48 (18:18 UTC)

予報

当レポートは6時間48分前の11:30(UTC)に作成
予報は17日の 12時(UTC)から 18日の 18時(UTC)まで有効
北/北東の風 8kt
視程: 7000m
17日の 12時(UTC)から 17日の 15時(UTC)まで一時的に
北/北東の風 16kt
18日の 08時(UTC)から 18日の 15時(UTC)まで一時的に
北/北東の風 16kt

TAF: OIZH 171130Z 1712/1818 03008KT 7000 NSC TEMPO 1712/1715 03016KT TEMPO 1808/1815 03016KT

4,000以上の空港の気象観測と天気予報(METAR報とTAF報)

利用可能な観測所は地図上に黄色い丸と赤い丸で示す。

丸の上にカーソルを重ねると観測所名を参照できる。

次にクリックすると気象観測と天気予報を参照できる。

マップの切り替え:黒色「×」印の緑ボタンをクリックして拡大、「-」印の緑ボタンをクリックして縮小、緑色の三角印をクリックして隣りの地図に切り替え


METAR-TAF: